Arcadia, Oregon
Current Conditions -  °F | °C
As of 11:07 AM on Friday 28 Nov 2014 (Local Time) from KONO Reporting Station
Haze Haze  
Wind Chill: 41°   Ceiling: 200
Heat Index: 41°   Visibility: 0.75mi
Dew Point: 40°   Wind: 0mph
Humidity: 96%   Direction: NA
Pressure: 29.82"   Gusts: NA
Location:  43.754°N, 117.202°W
Report Text: KONO 281807Z AUTO 00000KT 3/4SM BR OVC002 05/04 A2982 RMK AO2 T00500044
Loading
Personal Weather Stations






























Interactive Weather Map New forecast layout! Learn more

10-Day Weather Forecast

Advertisements
Track Severe Weather on mobile